Time;durP1;ratioP1;P1;durP2;ratioP2;P2;SDS_P1;SDS_P2;PMS_P1;PMS_P2;Temp;Humidity;BMP_temperature;BMP_pressure;BME280_temperature;BME280_humidity;BME280_pressure;Samples;Min_cycle;Max_cycle;Signal;HPM_P1;HPM_P2
2022/12/14 00:00:14;;;;;;;24.20;22.60;;;;;;;;;;5073699;28;20210;-78
2022/12/14 00:02:41;;;;;;;24.10;22.60;;;;;;;;;;5072471;28;20214;-77
2022/12/14 00:05:09;;;;;;;23.52;21.98;;;;;;;;;;5072810;28;20227;-79
2022/12/14 00:07:36;;;;;;;23.40;21.95;;;;;;;;;;5072478;28;20218;-78
2022/12/14 00:10:03;;;;;;;23.48;21.98;;;;;;;;;;5073068;28;20191;-79
2022/12/14 00:12:31;;;;;;;23.90;22.48;;;;;;;;;;5073282;28;20212;-77
2022/12/14 00:14:58;;;;;;;24.55;22.75;;;;;;;;;;5073015;28;20261;-79
2022/12/14 00:17:28;;;;;;;24.45;22.75;;;;;;;;;;5073149;28;20223;-78
2022/12/14 00:19:55;;;;;;;24.00;22.20;;;;;;;;;;5072413;28;20917;-80
2022/12/14 00:22:22;;;;;;;23.70;22.23;;;;;;;;;;5073250;28;20214;-78
2022/12/14 00:24:49;;;;;;;24.20;22.50;;;;;;;;;;5072672;28;20199;-79
2022/12/14 00:27:16;;;;;;;23.70;22.20;;;;;;;;;;5073210;28;20224;-77
2022/12/14 00:29:45;;;;;;;24.20;22.50;;;;;;;;;;5073190;28;20568;-77
2022/12/14 00:32:12;;;;;;;23.67;22.20;;;;;;;;;;5073303;28;20203;-78
2022/12/14 00:34:39;;;;;;;23.38;21.80;;;;;;;;;;5072578;28;20718;-78
2022/12/14 00:37:06;;;;;;;24.05;22.35;;;;;;;;;;5072616;28;20223;-79
2022/12/14 00:39:33;;;;;;;23.80;21.90;;;;;;;;;;5073222;28;20215;-78
2022/12/14 00:42:00;;;;;;;23.00;21.38;;;;;;;;;;5073239;28;20200;-77
2022/12/14 00:44:27;;;;;;;24.42;22.60;;;;;;;;;;5072265;28;20793;-78
2022/12/14 00:46:55;;;;;;;23.77;22.17;;;;;;;;;;5072332;28;20717;-77
2022/12/14 00:49:22;;;;;;;23.83;22.30;;;;;;;;;;5072702;28;20203;-77
2022/12/14 00:51:50;;;;;;;23.40;21.92;;;;;;;;;;5072852;28;20204;-77
2022/12/14 00:54:17;;;;;;;24.10;22.27;;;;;;;;;;5072182;28;20223;-77
2022/12/14 00:56:44;;;;;;;23.55;22.05;;;;;;;;;;5072809;28;20236;-79
2022/12/14 00:59:11;;;;;;;24.35;22.83;;;;;;;;;;5073139;28;20184;-77
2022/12/14 01:01:38;;;;;;;24.73;23.10;;;;;;;;;;5072829;28;20207;-77
2022/12/14 01:04:21;;;;;;;25.00;23.33;;;;;;;;;;5072537;28;20200;-79
2022/12/14 01:06:48;;;;;;;23.95;22.38;;;;;;;;;;5072526;28;20223;-79
2022/12/14 01:09:16;;;;;;;24.48;22.88;;;;;;;;;;5072237;28;20227;-78
2022/12/14 01:11:44;;;;;;;24.80;23.20;;;;;;;;;;5072603;28;20207;-77
2022/12/14 01:14:12;;;;;;;25.15;23.45;;;;;;;;;;5073561;28;20730;-78
2022/12/14 01:16:39;;;;;;;25.05;23.30;;;;;;;;;;5076530;28;20228;-77
2022/12/14 01:19:08;;;;;;;24.45;22.88;;;;;;;;;;5076491;28;20565;-78
2022/12/14 01:21:35;;;;;;;25.13;23.42;;;;;;;;;;5076485;28;20285;-79
2022/12/14 01:24:03;;;;;;;25.15;23.50;;;;;;;;;;5076025;28;20211;-78
2022/12/14 01:26:32;;;;;;;24.25;22.65;;;;;;;;;;5075469;28;20219;-78
2022/12/14 01:29:00;;;;;;;24.52;22.85;;;;;;;;;;5076033;28;20297;-77
2022/12/14 01:31:28;;;;;;;24.10;22.40;;;;;;;;;;5076495;28;20205;-78
2022/12/14 01:33:55;;;;;;;24.65;23.15;;;;;;;;;;5074920;28;20702;-78
2022/12/14 01:36:24;;;;;;;23.15;21.67;;;;;;;;;;5076175;28;20241;-77
2022/12/14 01:38:53;;;;;;;23.15;21.75;;;;;;;;;;5075177;28;20290;-77
2022/12/14 01:41:24;;;;;;;23.92;22.33;;;;;;;;;;5076347;28;20195;-78
2022/12/14 01:43:52;;;;;;;23.17;21.77;;;;;;;;;;5075521;28;20188;-77
2022/12/14 01:46:21;;;;;;;23.88;22.38;;;;;;;;;;5075884;28;20277;-77
2022/12/14 01:48:50;;;;;;;24.75;23.05;;;;;;;;;;5074892;28;20697;-79
2022/12/14 01:51:17;;;;;;;23.88;22.33;;;;;;;;;;5076180;28;20211;-78
2022/12/14 01:53:47;;;;;;;24.55;23.05;;;;;;;;;;5074838;28;20881;-78
2022/12/14 01:56:14;;;;;;;24.35;22.90;;;;;;;;;;5075306;28;20253;-77
2022/12/14 01:58:41;;;;;;;24.33;22.83;;;;;;;;;;5075651;28;20201;-78
2022/12/14 02:01:10;;;;;;;25.10;23.45;;;;;;;;;;5075536;28;20255;-78
2022/12/14 02:03:39;;;;;;;24.63;23.00;;;;;;;;;;5075133;28;20199;-77
2022/12/14 02:06:08;;;;;;;24.40;22.70;;;;;;;;;;5075104;28;20733;-77
2022/12/14 02:08:36;;;;;;;24.42;22.85;;;;;;;;;;5075002;28;20851;-77
2022/12/14 02:11:04;;;;;;;23.83;22.33;;;;;;;;;;5075798;28;20543;-78
2022/12/14 02:13:32;;;;;;;24.13;22.60;;;;;;;;;;5075101;28;20204;-77
2022/12/14 02:15:59;;;;;;;23.95;22.45;;;;;;;;;;5075184;28;20227;-79
2022/12/14 02:18:27;;;;;;;23.30;21.80;;;;;;;;;;5074728;28;20702;-78
2022/12/14 02:21:12;;;;;;;24.05;22.48;;;;;;;;;;5075080;28;20208;-78
2022/12/14 02:23:48;;;;;;;23.70;22.30;;;;;;;;;;5074571;28;20187;-78
2022/12/14 02:26:29;;;;;;;24.60;23.00;;;;;;;;;;5075154;28;20215;-78
2022/12/14 02:29:12;;;;;;;25.08;23.58;;;;;;;;;;5076097;28;20184;-79
2022/12/14 02:31:44;;;;;;;24.92;23.25;;;;;;;;;;5075364;28;20194;-78
2022/12/14 02:34:16;;;;;;;25.13;23.52;;;;;;;;;;5074801;28;20540;-79
2022/12/14 02:36:57;;;;;;;24.48;22.98;;;;;;;;;;5074602;28;20230;-78
2022/12/14 02:39:29;;;;;;;25.33;23.65;;;;;;;;;;5075035;28;20216;-77
2022/12/14 02:42:00;;;;;;;25.85;24.25;;;;;;;;;;5074693;28;20664;-78
2022/12/14 02:44:31;;;;;;;26.02;23.40;;;;;;;;;;5074632;28;20184;-77
2022/12/14 02:47:01;;;;;;;24.00;22.33;;;;;;;;;;5074785;28;20223;-79
2022/12/14 02:49:37;;;;;;;24.77;23.33;;;;;;;;;;5074621;28;20207;-79
2022/12/14 02:52:06;;;;;;;25.58;23.98;;;;;;;;;;5074841;28;20206;-77
2022/12/14 02:54:39;;;;;;;25.27;23.70;;;;;;;;;;5074231;28;20219;-77
2022/12/14 02:57:10;;;;;;;24.55;22.95;;;;;;;;;;5073902;28;20223;-77
2022/12/14 02:59:38;;;;;;;24.77;23.27;;;;;;;;;;5074125;28;20573;-78
2022/12/14 03:02:06;;;;;;;24.60;23.08;;;;;;;;;;5074067;28;20551;-77
2022/12/14 03:04:33;;;;;;;23.52;22.15;;;;;;;;;;5074010;28;20207;-79
2022/12/14 03:07:02;;;;;;;23.33;22.02;;;;;;;;;;5073431;28;20234;-78
2022/12/14 03:09:30;;;;;;;24.27;22.85;;;;;;;;;;5074244;28;20231;-77
2022/12/14 03:11:59;;;;;;;24.30;22.80;;;;;;;;;;5074304;28;20207;-78
2022/12/14 03:14:28;;;;;;;24.52;22.92;;;;;;;;;;5073356;28;20199;-77
2022/12/14 03:16:58;;;;;;;23.92;22.52;;;;;;;;;;5073134;28;20228;-77
2022/12/14 03:19:26;;;;;;;22.83;21.52;;;;;;;;;;5073702;28;20557;-78
2022/12/14 03:21:55;;;;;;;24.30;22.70;;;;;;;;;;5073512;28;20660;-77
2022/12/14 03:24:24;;;;;;;23.35;22.05;;;;;;;;;;5073196;28;20576;-77
2022/12/14 03:26:54;;;;;;;24.67;22.98;;;;;;;;;;5073571;28;20227;-78
2022/12/14 03:29:23;;;;;;;24.13;22.65;;;;;;;;;;5073856;28;20207;-77
2022/12/14 03:31:53;;;;;;;24.75;23.17;;;;;;;;;;5073827;28;20207;-77
2022/12/14 03:34:24;;;;;;;24.92;23.52;;;;;;;;;;5073366;28;20282;-77
2022/12/14 03:36:54;;;;;;;24.60;23.17;;;;;;;;;;5073158;28;20220;-79
2022/12/14 03:39:24;;;;;;;23.25;21.90;;;;;;;;;;5073463;28;20207;-77
2022/12/14 03:41:54;;;;;;;24.42;22.77;;;;;;;;;;5073700;28;20188;-77
2022/12/14 03:44:24;;;;;;;24.38;22.67;;;;;;;;;;5073027;28;20203;-78
2022/12/14 03:46:56;;;;;;;23.38;22.08;;;;;;;;;;5073387;28;20699;-77
2022/12/14 03:49:32;;;;;;;23.85;22.45;;;;;;;;;;5073912;28;20222;-77
2022/12/14 03:52:03;;;;;;;23.80;22.40;;;;;;;;;;5073543;28;20627;-78
2022/12/14 03:54:36;;;;;;;23.30;22.00;;;;;;;;;;5072956;28;20198;-77
2022/12/14 03:57:06;;;;;;;24.45;22.65;;;;;;;;;;5072573;28;20248;-77
2022/12/14 03:59:39;;;;;;;24.13;22.08;;;;;;;;;;5073377;28;20199;-78
2022/12/14 04:02:09;;;;;;;24.40;22.48;;;;;;;;;;5073404;28;20198;-77
2022/12/14 04:04:41;;;;;;;24.77;23.10;;;;;;;;;;5072806;28;20195;-77
2022/12/14 04:07:11;;;;;;;25.25;23.52;;;;;;;;;;5072633;28;20245;-77
2022/12/14 04:09:42;;;;;;;25.60;23.90;;;;;;;;;;5072968;28;20207;-77
2022/12/14 04:20:37;;;;;;;27.30;25.40;;;;;;;;;;5073125;28;20322;-77
2022/12/14 04:23:06;;;;;;;27.23;25.23;;;;;;;;;;5072887;28;20199;-78
2022/12/14 04:31:10;;;;;;;27.05;24.83;;;;;;;;;;5073072;28;20228;-77
2022/12/14 04:33:48;;;;;;;27.50;25.45;;;;;;;;;;5072235;28;20203;-78
2022/12/14 04:36:19;;;;;;;28.48;26.30;;;;;;;;;;5072799;28;20242;-79
2022/12/14 04:38:48;;;;;;;28.73;26.35;;;;;;;;;;5073595;28;20184;-78
2022/12/14 04:41:18;;;;;;;28.05;25.85;;;;;;;;;;5073140;28;20194;-77
2022/12/14 04:43:47;;;;;;;27.60;25.58;;;;;;;;;;5072772;28;20203;-78
2022/12/14 04:46:15;;;;;;;28.77;26.67;;;;;;;;;;5073221;28;20637;-79
2022/12/14 04:48:45;;;;;;;27.55;25.40;;;;;;;;;;5073279;28;20211;-78
2022/12/14 04:51:15;;;;;;;29.45;27.25;;;;;;;;;;5077085;28;20191;-78
2022/12/14 04:53:45;;;;;;;28.65;26.60;;;;;;;;;;5076645;28;20211;-78
2022/12/14 04:56:17;;;;;;;28.35;26.10;;;;;;;;;;5077065;28;20269;-78
2022/12/14 04:58:44;;;;;;;27.88;26.08;;;;;;;;;;5076657;28;20218;-78
2022/12/14 05:01:16;;;;;;;29.67;27.38;;;;;;;;;;5079523;28;20208;-78
2022/12/14 05:03:50;;;;;;;28.90;26.60;;;;;;;;;;5096843;28;20194;-78
2022/12/14 05:06:19;;;;;;;30.10;27.95;;;;;;;;;;5097258;28;20602;-79
2022/12/14 05:09:00;;;;;;;28.52;26.42;;;;;;;;;;5096596;28;20206;-78
2022/12/14 05:11:29;;;;;;;27.83;25.70;;;;;;;;;;5097301;28;20187;-78
2022/12/14 05:13:56;;;;;;;26.85;25.08;;;;;;;;;;5096261;28;20207;-78
2022/12/14 05:16:24;;;;;;;26.50;24.70;;;;;;;;;;5096840;28;20246;-79
2022/12/14 05:18:51;;;;;;;25.83;24.17;;;;;;;;;;5096473;28;20202;-78
2022/12/14 05:24:02;;;;;;;25.67;23.75;;;;;;;;;;5095503;28;20656;-79
2022/12/14 05:26:29;;;;;;;26.05;24.05;;;;;;;;;;5096557;28;20234;-78
2022/12/14 05:28:56;;;;;;;26.13;24.23;;;;;;;;;;5096057;28;20426;-79
2022/12/14 05:31:23;;;;;;;25.70;23.67;;;;;;;;;;5096451;28;20187;-78
2022/12/14 05:33:50;;;;;;;23.60;22.10;;;;;;;;;;5096563;28;20202;-79
2022/12/14 05:36:18;;;;;;;26.10;24.33;;;;;;;;;;5096703;28;20309;-78
2022/12/14 05:38:45;;;;;;;24.50;22.90;;;;;;;;;;5096495;28;20302;-78
2022/12/14 05:41:13;;;;;;;24.48;22.95;;;;;;;;;;5096346;28;20203;-79
2022/12/14 05:43:40;;;;;;;24.17;22.58;;;;;;;;;;5096294;28;20626;-78
2022/12/14 05:46:08;;;;;;;24.40;22.75;;;;;;;;;;5096576;28;20575;-78
2022/12/14 05:48:35;;;;;;;25.17;23.38;;;;;;;;;;5096663;28;20202;-78
2022/12/14 05:51:06;;;;;;;23.75;22.23;;;;;;;;;;5095916;28;20560;-79
2022/12/14 05:53:33;;;;;;;24.55;22.95;;;;;;;;;;5095842;28;20190;-77
2022/12/14 05:56:00;;;;;;;23.75;22.20;;;;;;;;;;5096241;28;20231;-79
2022/12/14 05:58:29;;;;;;;24.85;23.15;;;;;;;;;;5096155;28;20202;-78
2022/12/14 06:00:59;;;;;;;25.25;23.55;;;;;;;;;;5094193;28;20206;-79
2022/12/14 06:03:26;;;;;;;23.83;22.30;;;;;;;;;;5095110;28;20197;-79
2022/12/14 06:05:54;;;;;;;23.48;22.08;;;;;;;;;;5095962;28;20226;-78
2022/12/14 06:08:21;;;;;;;25.85;24.23;;;;;;;;;;5095911;28;20206;-77
2022/12/14 06:10:48;;;;;;;25.60;23.98;;;;;;;;;;5095850;28;20728;-78
2022/12/14 06:13:15;;;;;;;24.65;23.05;;;;;;;;;;5095550;28;20210;-78
2022/12/14 06:15:43;;;;;;;25.30;23.52;;;;;;;;;;5095716;28;20242;-79
2022/12/14 06:18:10;;;;;;;24.67;23.13;;;;;;;;;;5096499;28;20191;-83
2022/12/14 06:20:38;;;;;;;26.38;24.02;;;;;;;;;;5096246;28;20219;-77
2022/12/14 06:23:05;;;;;;;25.75;24.08;;;;;;;;;;5095758;28;20209;-79
2022/12/14 06:25:32;;;;;;;25.05;23.20;;;;;;;;;;5096392;28;20233;-78
2022/12/14 06:27:59;;;;;;;24.80;23.40;;;;;;;;;;5095421;28;20211;-78
2022/12/14 06:30:26;;;;;;;23.75;22.17;;;;;;;;;;5096283;28;20199;-78
2022/12/14 06:32:54;;;;;;;24.60;22.83;;;;;;;;;;5095697;28;20205;-79
2022/12/14 06:35:21;;;;;;;24.40;22.90;;;;;;;;;;5095288;28;20250;-78
2022/12/14 06:37:48;;;;;;;24.23;22.65;;;;;;;;;;5095565;28;20210;-77
2022/12/14 06:40:16;;;;;;;24.48;22.77;;;;;;;;;;5094876;28;20219;-78
2022/12/14 06:42:43;;;;;;;24.17;22.52;;;;;;;;;;5095412;28;20209;-77
2022/12/14 06:45:10;;;;;;;25.20;23.35;;;;;;;;;;5094560;28;20304;-79
2022/12/14 06:47:37;;;;;;;25.90;24.20;;;;;;;;;;5094401;28;20712;-77
2022/12/14 06:50:06;;;;;;;24.60;22.80;;;;;;;;;;5094817;28;20666;-78
2022/12/14 06:52:33;;;;;;;26.30;24.50;;;;;;;;;;5095072;28;20214;-77
2022/12/14 06:55:00;;;;;;;26.52;24.33;;;;;;;;;;5094321;28;20216;-78
2022/12/14 06:57:27;;;;;;;27.42;24.88;;;;;;;;;;5094942;28;20238;-78
2022/12/14 06:59:54;;;;;;;23.67;22.13;;;;;;;;;;5094079;28;20546;-79
2022/12/14 07:02:21;;;;;;;25.58;23.77;;;;;;;;;;5094031;28;20203;-78
2022/12/14 07:04:48;;;;;;;25.48;23.45;;;;;;;;;;5094072;28;20206;-77
2022/12/14 07:07:17;;;;;;;25.63;23.80;;;;;;;;;;5094200;28;20227;-79
2022/12/14 07:09:44;;;;;;;24.83;23.15;;;;;;;;;;5095079;28;20202;-78
2022/12/14 07:12:11;;;;;;;24.17;22.63;;;;;;;;;;5093785;28;20210;-78
2022/12/14 07:14:38;;;;;;;24.00;22.20;;;;;;;;;;5094161;28;20213;-78
2022/12/14 07:17:05;;;;;;;23.63;22.17;;;;;;;;;;5093963;28;20233;-78
2022/12/14 07:19:32;;;;;;;24.48;22.70;;;;;;;;;;5094659;28;20206;-77
2022/12/14 07:22:02;;;;;;;24.23;22.65;;;;;;;;;;5094377;28;20213;-77
2022/12/14 07:24:31;;;;;;;24.80;23.13;;;;;;;;;;5094050;28;20226;-78
2022/12/14 07:26:59;;;;;;;24.30;22.85;;;;;;;;;;5095651;28;20230;-79
2022/12/14 07:29:26;;;;;;;23.88;22.38;;;;;;;;;;5094122;28;20199;-77
2022/12/14 07:31:53;;;;;;;26.52;24.45;;;;;;;;;;5093822;28;20218;-77
2022/12/14 07:34:20;;;;;;;26.00;24.00;;;;;;;;;;5093044;28;20218;-77
2022/12/14 07:36:49;;;;;;;26.00;23.90;;;;;;;;;;5093986;28;20237;-77
2022/12/14 07:39:17;;;;;;;25.40;23.52;;;;;;;;;;5093258;28;20212;-74
2022/12/14 07:41:46;;;;;;;24.25;22.65;;;;;;;;;;5093369;28;20202;-74
2022/12/14 07:44:13;;;;;;;24.85;23.05;;;;;;;;;;5092946;28;20202;-74
2022/12/14 07:46:40;;;;;;;25.95;24.33;;;;;;;;;;5092399;28;20222;-75
2022/12/14 07:49:07;;;;;;;25.27;23.58;;;;;;;;;;5093097;28;20202;-74
2022/12/14 07:51:36;;;;;;;25.98;24.08;;;;;;;;;;5093196;28;20206;-75
2022/12/14 07:54:04;;;;;;;24.75;23.02;;;;;;;;;;5092709;28;20612;-75
2022/12/14 07:56:33;;;;;;;23.65;22.05;;;;;;;;;;5092620;28;20272;-74
2022/12/14 07:59:02;;;;;;;25.60;23.60;;;;;;;;;;5092684;28;20618;-76
2022/12/14 08:01:31;;;;;;;26.10;24.30;;;;;;;;;;5092878;28;20202;-76
2022/12/14 08:03:58;;;;;;;29.23;26.63;;;;;;;;;;5092431;28;20217;-74
2022/12/14 08:06:27;;;;;;;27.98;25.73;;;;;;;;;;5092881;28;20223;-74
2022/12/14 08:08:54;;;;;;;24.85;23.15;;;;;;;;;;5092740;28;20202;-76
2022/12/14 08:11:22;;;;;;;24.45;22.75;;;;;;;;;;5092524;28;20627;-75
2022/12/14 08:13:49;;;;;;;23.42;22.02;;;;;;;;;;5091942;28;20678;-75
2022/12/14 08:16:17;;;;;;;25.45;23.17;;;;;;;;;;5092352;28;20881;-75
2022/12/14 08:18:44;;;;;;;25.02;23.42;;;;;;;;;;5092571;28;20225;-74
2022/12/14 08:21:13;;;;;;;26.55;24.65;;;;;;;;;;5092805;28;20202;-75
2022/12/14 08:23:40;;;;;;;26.65;24.63;;;;;;;;;;5093428;28;20566;-74
2022/12/14 08:26:08;;;;;;;25.17;23.48;;;;;;;;;;5096232;28;20325;-74
2022/12/14 08:28:36;;;;;;;26.92;25.08;;;;;;;;;;5096353;28;20206;-75
2022/12/14 08:31:06;;;;;;;26.85;24.80;;;;;;;;;;5096861;28;20213;-74
2022/12/14 08:33:35;;;;;;;26.45;24.33;;;;;;;;;;5096349;28;20209;-73
2022/12/14 08:36:07;;;;;;;24.00;22.40;;;;;;;;;;5096316;28;20248;-74
2022/12/14 08:38:34;;;;;;;25.20;23.60;;;;;;;;;;5097227;28;20197;-76
2022/12/14 08:41:02;;;;;;;26.80;24.80;;;;;;;;;;5098450;28;20215;-75
2022/12/14 08:43:29;;;;;;;24.88;23.30;;;;;;;;;;5096605;28;20199;-75
2022/12/14 08:45:56;;;;;;;24.75;22.95;;;;;;;;;;5096522;28;20583;-74
2022/12/14 08:48:23;;;;;;;29.83;27.38;;;;;;;;;;5096033;28;20257;-75
2022/12/14 08:50:52;;;;;;;28.30;25.77;;;;;;;;;;5096516;28;20264;-76
2022/12/14 08:53:19;;;;;;;25.15;23.25;;;;;;;;;;5096156;28;20207;-75
2022/12/14 08:55:46;;;;;;;30.90;28.42;;;;;;;;;;5096399;28;20226;-76
2022/12/14 08:58:14;;;;;;;28.63;26.38;;;;;;;;;;5095748;28;20226;-74
2022/12/14 09:00:42;;;;;;;29.58;27.15;;;;;;;;;;5096168;28;20226;-75
2022/12/14 09:03:10;;;;;;;31.45;28.95;;;;;;;;;;5095511;28;20293;-75
2022/12/14 09:05:37;;;;;;;30.60;27.77;;;;;;;;;;5096794;28;20234;-75
2022/12/14 09:08:06;;;;;;;27.85;25.45;;;;;;;;;;5096464;28;20575;-75
2022/12/14 09:10:33;;;;;;;29.55;27.20;;;;;;;;;;5096449;28;20218;-75
2022/12/14 09:13:00;;;;;;;26.33;24.17;;;;;;;;;;5096009;28;20202;-75
2022/12/14 09:15:27;;;;;;;26.90;24.90;;;;;;;;;;5096168;28;20229;-74
2022/12/14 09:17:54;;;;;;;27.27;25.20;;;;;;;;;;5095303;28;20222;-75
2022/12/14 09:20:21;;;;;;;26.90;25.10;;;;;;;;;;5096003;28;20183;-74
2022/12/14 09:22:51;;;;;;;27.58;25.55;;;;;;;;;;5095735;28;20716;-74
2022/12/14 09:25:19;;;;;;;25.58;23.88;;;;;;;;;;5095018;28;20202;-76
2022/12/14 09:27:46;;;;;;;25.48;23.58;;;;;;;;;;5095741;28;20206;-76
2022/12/14 09:30:14;;;;;;;27.45;25.05;;;;;;;;;;5094812;28;20608;-75
2022/12/14 09:32:42;;;;;;;26.23;24.35;;;;;;;;;;5095643;28;20647;-74
2022/12/14 09:35:10;;;;;;;25.80;23.83;;;;;;;;;;5094602;28;20595;-73
2022/12/14 09:37:37;;;;;;;25.55;23.70;;;;;;;;;;5095688;28;20222;-75
2022/12/14 09:40:04;;;;;;;25.33;23.58;;;;;;;;;;5095356;28;20250;-74
2022/12/14 09:42:47;;;;;;;27.05;25.05;;;;;;;;;;5095666;28;20205;-75
2022/12/14 09:45:16;;;;;;;27.23;25.23;;;;;;;;;;5094474;28;20577;-74
2022/12/14 09:47:48;;;;;;;29.30;26.80;;;;;;;;;;5095006;28;20718;-75
2022/12/14 09:50:17;;;;;;;26.98;24.90;;;;;;;;;;5095573;28;20541;-74
2022/12/14 09:52:45;;;;;;;28.20;26.08;;;;;;;;;;5095547;28;20214;-75
2022/12/14 09:55:17;;;;;;;26.00;24.20;;;;;;;;;;5094746;28;20206;-75
2022/12/14 09:57:47;;;;;;;27.27;25.30;;;;;;;;;;5095489;28;20199;-75
2022/12/14 10:00:16;;;;;;;26.95;25.10;;;;;;;;;;5095766;28;20188;-74
2022/12/14 10:02:52;;;;;;;31.60;29.08;;;;;;;;;;5095561;28;20248;-75
2022/12/14 10:05:31;;;;;;;32.25;29.75;;;;;;;;;;5093999;28;20234;-74
2022/12/14 10:08:02;;;;;;;30.13;27.92;;;;;;;;;;5095104;28;20194;-74
2022/12/14 10:10:33;;;;;;;30.98;28.35;;;;;;;;;;5094857;28;20286;-74
2022/12/14 10:13:06;;;;;;;29.30;26.85;;;;;;;;;;5094044;28;20210;-75
2022/12/14 10:15:36;;;;;;;28.67;26.38;;;;;;;;;;5094888;28;20237;-74
2022/12/14 10:18:21;;;;;;;28.50;26.40;;;;;;;;;;5095108;28;20233;-74
2022/12/14 10:20:51;;;;;;;27.75;25.67;;;;;;;;;;5064360;28;20206;-75
2022/12/14 10:23:21;;;;;;;28.45;26.25;;;;;;;;;;5094471;28;20209;-75
2022/12/14 10:25:49;;;;;;;30.23;27.77;;;;;;;;;;5094195;28;20222;-74
2022/12/14 10:28:19;;;;;;;29.35;27.25;;;;;;;;;;5094753;28;20202;-74
2022/12/14 10:30:47;;;;;;;31.92;29.25;;;;;;;;;;5094741;28;20207;-74
2022/12/14 10:33:18;;;;;;;30.77;28.48;;;;;;;;;;5093760;28;20209;-74
2022/12/14 10:35:48;;;;;;;27.25;25.17;;;;;;;;;;5095864;28;20214;-74
2022/12/14 10:38:18;;;;;;;31.40;28.88;;;;;;;;;;5095468;28;20313;-74
2022/12/14 10:40:49;;;;;;;28.30;26.20;;;;;;;;;;5094368;28;20206;-73
2022/12/14 10:43:26;;;;;;;28.92;26.42;;;;;;;;;;5093199;28;20231;-75
2022/12/14 10:45:59;;;;;;;27.75;25.55;;;;;;;;;;5094232;28;20245;-74
2022/12/14 10:48:36;;;;;;;27.80;25.50;;;;;;;;;;5094524;28;20175;-75
2022/12/14 10:51:06;;;;;;;30.67;28.20;;;;;;;;;;5094169;28;20191;-73
2022/12/14 10:53:39;;;;;;;26.13;24.13;;;;;;;;;;5093397;28;20242;-74
2022/12/14 10:56:10;;;;;;;27.05;25.15;;;;;;;;;;5093731;28;20226;-74
2022/12/14 10:58:38;;;;;;;26.30;24.35;;;;;;;;;;5093559;28;20218;-73
2022/12/14 11:01:06;;;;;;;26.25;24.45;;;;;;;;;;5094197;28;20202;-74
2022/12/14 11:03:33;;;;;;;26.52;24.75;;;;;;;;;;5092519;28;20233;-74
2022/12/14 11:06:00;;;;;;;25.75;23.35;;;;;;;;;;5093907;28;20566;-74
2022/12/14 11:08:41;;;;;;;26.98;24.70;;;;;;;;;;5093641;28;20198;-74
2022/12/14 11:11:10;;;;;;;26.80;24.73;;;;;;;;;;5093552;28;20246;-74
2022/12/14 11:13:38;;;;;;;27.05;25.00;;;;;;;;;;5092280;28;20211;-74
2022/12/14 11:16:17;;;;;;;25.60;23.80;;;;;;;;;;5092978;28;20721;-74
2022/12/14 11:18:45;;;;;;;26.92;24.83;;;;;;;;;;5093366;28;20565;-74
2022/12/14 11:21:15;;;;;;;27.35;25.00;;;;;;;;;;5093511;28;20314;-75
2022/12/14 11:23:44;;;;;;;26.25;24.23;;;;;;;;;;5092907;28;20210;-74
2022/12/14 11:26:14;;;;;;;26.08;23.90;;;;;;;;;;5092948;28;20219;-73
2022/12/14 11:28:47;;;;;;;24.00;22.20;;;;;;;;;;5093840;28;20199;-74
2022/12/14 11:31:21;;;;;;;25.90;24.08;;;;;;;;;;5093356;28;20203;-74
2022/12/14 11:33:49;;;;;;;25.63;23.58;;;;;;;;;;5091571;28;20202;-74
2022/12/14 11:36:23;;;;;;;22.63;21.30;;;;;;;;;;5092971;28;20234;-74
2022/12/14 11:38:56;;;;;;;25.92;24.08;;;;;;;;;;5092475;28;20238;-74
2022/12/14 11:41:23;;;;;;;26.45;24.58;;;;;;;;;;5096105;28;20663;-81
2022/12/14 11:44:03;;;;;;;28.48;26.20;;;;;;;;;;5093657;28;20211;-78
2022/12/14 11:46:44;;;;;;;25.33;23.55;;;;;;;;;;5094435;28;20230;-78
2022/12/14 11:49:20;;;;;;;27.88;25.80;;;;;;;;;;5092770;28;20213;-77
2022/12/14 11:52:01;;;;;;;30.05;27.60;;;;;;;;;;5094234;28;20644;-79
2022/12/14 11:54:29;;;;;;;26.30;24.50;;;;;;;;;;5095207;28;20258;-74
2022/12/14 11:56:58;;;;;;;28.10;25.80;;;;;;;;;;5093102;28;20223;-75
2022/12/14 11:59:30;;;;;;;30.05;27.58;;;;;;;;;;5093261;28;20206;-78
2022/12/14 12:01:57;;;;;;;26.65;24.70;;;;;;;;;;5094457;28;20615;-78
2022/12/14 12:04:24;;;;;;;28.65;26.33;;;;;;;;;;5093563;28;20265;-74
2022/12/14 12:06:54;;;;;;;28.50;26.20;;;;;;;;;;5092914;28;20576;-74
2022/12/14 12:09:26;;;;;;;25.88;24.08;;;;;;;;;;5092133;28;20225;-74
2022/12/14 12:11:53;;;;;;;26.38;24.38;;;;;;;;;;5093287;28;20214;-74
2022/12/14 12:14:26;;;;;;;26.80;24.65;;;;;;;;;;5092664;28;20209;-74
2022/12/14 12:16:55;;;;;;;26.48;24.48;;;;;;;;;;5093016;28;20227;-75
2022/12/14 12:19:25;;;;;;;25.80;23.88;;;;;;;;;;5092994;28;20206;-74
2022/12/14 12:21:53;;;;;;;26.05;24.25;;;;;;;;;;5092190;28;20694;-75
2022/12/14 12:24:22;;;;;;;25.00;23.30;;;;;;;;;;5092539;28;20218;-74
2022/12/14 12:26:50;;;;;;;28.05;25.90;;;;;;;;;;5092437;28;20234;-74
2022/12/14 12:29:21;;;;;;;27.00;24.80;;;;;;;;;;5092711;28;20295;-75
2022/12/14 12:31:51;;;;;;;29.00;26.90;;;;;;;;;;5092943;28;20194;-74
2022/12/14 12:34:20;;;;;;;28.58;26.23;;;;;;;;;;5092391;28;20191;-74
2022/12/14 12:36:48;;;;;;;27.25;25.15;;;;;;;;;;5092819;28;20223;-74
2022/12/14 12:39:16;;;;;;;27.55;25.52;;;;;;;;;;5092639;28;20236;-75
2022/12/14 12:41:50;;;;;;;27.75;25.67;;;;;;;;;;5092961;28;20214;-76
2022/12/14 12:44:35;;;;;;;27.67;25.73;;;;;;;;;;5092432;28;20268;-74
2022/12/14 12:47:05;;;;;;;25.75;23.95;;;;;;;;;;5092815;28;20227;-74
2022/12/14 12:49:34;;;;;;;27.23;25.23;;;;;;;;;;5095705;28;20190;-78
2022/12/14 12:52:03;;;;;;;26.30;24.40;;;;;;;;;;5094869;28;20207;-74
2022/12/14 12:54:32;;;;;;;28.73;26.42;;;;;;;;;;5091863;28;20206;-74
2022/12/14 12:57:01;;;;;;;27.80;25.65;;;;;;;;;;5092418;28;20219;-75
2022/12/14 12:59:33;;;;;;;27.60;25.50;;;;;;;;;;5092017;28;20206;-75
2022/12/14 13:02:02;;;;;;;28.02;25.38;;;;;;;;;;5091981;28;20211;-74
2022/12/14 13:04:32;;;;;;;29.10;26.63;;;;;;;;;;5091577;28;20199;-73
2022/12/14 13:07:03;;;;;;;27.52;25.05;;;;;;;;;;5092191;28;20585;-74
2022/12/14 13:09:37;;;;;;;27.70;25.60;;;;;;;;;;5092954;28;20215;-74
2022/12/14 13:12:06;;;;;;;26.40;24.35;;;;;;;;;;5096348;28;20221;-74
2022/12/14 13:14:36;;;;;;;27.88;25.65;;;;;;;;;;5095691;28;20209;-73
2022/12/14 13:17:04;;;;;;;26.58;24.58;;;;;;;;;;5095400;28;20226;-76
2022/12/14 13:19:36;;;;;;;27.20;24.83;;;;;;;;;;5096123;28;20207;-73
2022/12/14 13:22:05;;;;;;;26.65;24.70;;;;;;;;;;5095098;28;20207;-75
2022/12/14 13:24:32;;;;;;;27.88;25.35;;;;;;;;;;5095517;28;20207;-73
2022/12/14 13:27:17;;;;;;;26.35;24.33;;;;;;;;;;5095939;28;20297;-74
2022/12/14 13:29:50;;;;;;;26.30;24.33;;;;;;;;;;5085608;28;20573;-74
2022/12/14 13:32:25;;;;;;;26.52;24.45;;;;;;;;;;5095899;28;20198;-74
2022/12/14 13:34:56;;;;;;;26.45;24.30;;;;;;;;;;5095508;28;20216;-74
2022/12/14 13:37:41;;;;;;;26.20;24.10;;;;;;;;;;5095732;28;20227;-74
2022/12/14 13:40:23;;;;;;;27.10;24.70;;;;;;;;;;5095762;28;20673;-74
2022/12/14 13:42:55;;;;;;;26.42;24.38;;;;;;;;;;5095373;28;20207;-74
2022/12/14 13:45:23;;;;;;;27.50;25.58;;;;;;;;;;5095316;28;20229;-74
2022/12/14 13:47:52;;;;;;;29.23;26.67;;;;;;;;;;5095484;28;20210;-74
2022/12/14 13:50:25;;;;;;;27.38;25.38;;;;;;;;;;5095641;28;20207;-74
2022/12/14 13:52:57;;;;;;;26.08;24.23;;;;;;;;;;5095529;28;20183;-74
2022/12/14 13:55:30;;;;;;;28.15;25.80;;;;;;;;;;5095076;28;20718;-73
2022/12/14 13:58:06;;;;;;;26.05;23.85;;;;;;;;;;5095554;28;20659;-82
2022/12/14 14:01:06;;;;;;;26.20;24.27;;;;;;;;;;5095997;28;20639;-74
2022/12/14 14:03:43;;;;;;;28.25;25.88;;;;;;;;;;5032337;28;20242;-74
2022/12/14 14:06:16;;;;;;;27.25;25.08;;;;;;;;;;5086215;28;20705;-74
2022/12/14 14:08:45;;;;;;;26.48;24.27;;;;;;;;;;5095285;28;20213;-74
2022/12/14 14:11:40;;;;;;;27.25;25.05;;;;;;;;;;5095083;28;20279;-73
2022/12/14 14:14:12;;;;;;;28.17;25.88;;;;;;;;;;5094338;28;20213;-74
2022/12/14 14:16:42;;;;;;;28.92;26.33;;;;;;;;;;5095072;28;20225;-74
2022/12/14 14:19:16;;;;;;;27.63;25.55;;;;;;;;;;5094823;28;20226;-74
2022/12/14 14:21:45;;;;;;;26.67;24.65;;;;;;;;;;5093744;28;20194;-73
2022/12/14 14:24:23;;;;;;;27.15;25.05;;;;;;;;;;5094353;28;20252;-73
2022/12/14 14:27:00;;;;;;;28.23;25.92;;;;;;;;;;5094954;28;20222;-74
2022/12/14 14:29:27;;;;;;;29.23;26.83;;;;;;;;;;5094918;28;20198;-74
2022/12/14 14:31:56;;;;;;;27.05;24.98;;;;;;;;;;5094666;28;20218;-73
2022/12/14 14:34:25;;;;;;;27.67;25.63;;;;;;;;;;5093702;28;20575;-73
2022/12/14 14:36:53;;;;;;;28.20;25.90;;;;;;;;;;5094384;28;20313;-73
2022/12/14 14:39:31;;;;;;;28.45;26.15;;;;;;;;;;5094362;28;20227;-74
2022/12/14 14:41:58;;;;;;;29.15;26.58;;;;;;;;;;5094043;28;20679;-75
2022/12/14 14:44:29;;;;;;;28.42;26.33;;;;;;;;;;5093315;28;20203;-74
2022/12/14 14:46:57;;;;;;;28.05;26.00;;;;;;;;;;5094139;28;20246;-74